createdAt,value
2023-04-14T00:00:13.643Z,10.97
2023-04-14T00:02:43.972Z,10.75
2023-04-14T00:05:13.023Z,10.60
2023-04-14T00:07:41.851Z,10.36
2023-04-14T00:10:11.220Z,10.12
2023-04-14T00:12:39.676Z,10.47
2023-04-14T00:15:08.908Z,10.89
2023-04-14T00:17:38.711Z,10.78
2023-04-14T00:20:10.138Z,10.54
2023-04-14T00:22:38.856Z,10.31
2023-04-14T00:25:08.425Z,10.06
2023-04-14T00:27:36.803Z,9.93
2023-04-14T00:30:06.199Z,10.31
2023-04-14T00:32:40.957Z,10.74
2023-04-14T00:35:09.818Z,10.80
2023-04-14T00:37:42.086Z,10.61
2023-04-14T00:40:13.969Z,10.34
2023-04-14T00:42:46.324Z,9.99
2023-04-14T00:45:15.438Z,9.69
2023-04-14T00:47:48.221Z,10.03
2023-04-14T00:50:18.169Z,10.38
2023-04-14T00:52:48.333Z,10.45
2023-04-14T00:55:18.463Z,10.35
2023-04-14T00:57:46.889Z,10.13
2023-04-14T01:07:50.807Z,10.85
2023-04-14T01:10:19.420Z,10.98
2023-04-14T01:13:02.504Z,10.84
2023-04-14T01:15:39.425Z,10.50
2023-04-14T01:18:17.574Z,10.23
2023-04-14T01:20:49.580Z,9.98
2023-04-14T01:23:32.389Z,9.77
2023-04-14T01:26:16.720Z,10.31
2023-04-14T01:28:55.898Z,10.75
2023-04-14T01:31:26.105Z,10.43
2023-04-14T01:34:09.197Z,10.28
2023-04-14T01:36:44.333Z,10.06
2023-04-14T01:39:16.330Z,9.80
2023-04-14T01:41:46.544Z,9.45
2023-04-14T01:44:16.615Z,9.85
2023-04-14T01:46:45.728Z,10.44
2023-04-14T01:49:14.372Z,10.41
2023-04-14T01:51:43.219Z,10.31
2023-04-14T01:54:12.926Z,10.07
2023-04-14T01:56:41.807Z,9.78
2023-04-14T01:59:11.535Z,9.57
2023-04-14T02:01:40.255Z,10.09
2023-04-14T02:04:08.928Z,10.54
2023-04-14T02:06:38.393Z,10.57
2023-04-14T02:09:10.656Z,10.34
2023-04-14T02:11:39.142Z,10.12
2023-04-14T02:14:08.145Z,9.72
2023-04-14T02:16:39.387Z,9.64
2023-04-14T02:19:08.385Z,10.14
2023-04-14T02:21:37.879Z,10.59
2023-04-14T02:24:09.115Z,10.63
2023-04-14T02:26:38.233Z,10.40
2023-04-14T02:29:11.648Z,10.16
2023-04-14T02:31:42.966Z,9.99
2023-04-14T02:34:12.706Z,9.80
2023-04-14T02:36:51.750Z,9.56
2023-04-14T02:39:24.273Z,10.14
2023-04-14T02:41:58.732Z,10.66
2023-04-14T02:44:30.062Z,10.72
2023-04-14T02:47:07.156Z,10.52
2023-04-14T02:49:43.427Z,10.28
2023-04-14T02:52:12.841Z,9.99
2023-04-14T02:54:42.408Z,9.86
2023-04-14T02:57:11.016Z,10.32
2023-04-14T02:59:42.758Z,10.86
2023-04-14T03:02:12.962Z,10.88
2023-04-14T03:04:45.750Z,10.63
2023-04-14T03:07:36.460Z,10.31
2023-04-14T03:10:06.362Z,10.04
2023-04-14T03:12:39.613Z,9.79
2023-04-14T03:15:10.632Z,10.26
2023-04-14T03:17:39.428Z,10.72
2023-04-14T03:20:13.948Z,10.68
2023-04-14T03:22:44.349Z,10.56
2023-04-14T03:25:16.087Z,10.25
2023-04-14T03:27:46.152Z,10.01
2023-04-14T03:30:15.533Z,9.79
2023-04-14T03:32:45.089Z,10.24
2023-04-14T03:35:15.792Z,10.61
2023-04-14T03:37:44.450Z,10.66
2023-04-14T03:40:13.838Z,10.45
2023-04-14T03:42:46.503Z,10.18
2023-04-14T03:45:18.326Z,9.88
2023-04-14T03:47:47.300Z,9.72
2023-04-14T03:50:17.378Z,10.12
2023-04-14T03:52:47.123Z,10.47
2023-04-14T03:55:15.994Z,10.40
2023-04-14T03:57:49.275Z,10.24
2023-04-14T04:00:19.192Z,9.97
2023-04-14T04:03:09.059Z,9.79
2023-04-14T04:05:40.621Z,10.26
2023-04-14T04:08:09.116Z,10.63
2023-04-14T04:10:38.006Z,10.58
2023-04-14T04:13:11.613Z,10.37
2023-04-14T04:15:41.541Z,10.12
2023-04-14T04:18:11.630Z,9.85
2023-04-14T04:20:40.515Z,10.13
2023-04-14T04:23:09.839Z,10.48
2023-04-14T04:25:38.814Z,10.50
2023-04-14T04:28:13.254Z,10.23
2023-04-14T04:30:41.961Z,10.10
2023-04-14T04:33:12.008Z,9.85
2023-04-14T04:35:41.337Z,10.25
2023-04-14T04:38:11.661Z,10.69
2023-04-14T04:40:42.711Z,10.70
2023-04-14T04:43:19.485Z,10.50
2023-04-14T04:46:09.033Z,10.25
2023-04-14T04:48:37.750Z,9.90
2023-04-14T04:51:08.205Z,9.71
2023-04-14T04:53:36.830Z,10.18
2023-04-14T04:56:08.616Z,10.54
2023-04-14T04:58:37.963Z,10.18
2023-04-14T05:01:10.615Z,9.76
2023-04-14T05:03:41.123Z,9.50
2023-04-14T05:06:09.603Z,9.41
2023-04-14T05:08:41.411Z,9.86
2023-04-14T05:11:10.143Z,9.75
2023-04-14T05:13:38.936Z,9.66
2023-04-14T05:16:11.081Z,9.58
2023-04-14T05:18:42.982Z,9.48
2023-04-14T05:21:13.186Z,9.54
2023-04-14T05:23:43.817Z,9.35
2023-04-14T05:28:48.662Z,10.03
2023-04-14T05:31:17.311Z,10.16
2023-04-14T05:33:46.266Z,10.05
2023-04-14T05:36:14.620Z,9.73
2023-04-14T05:38:43.422Z,9.60
2023-04-14T05:41:12.520Z,9.72
2023-04-14T05:43:42.931Z,9.91
2023-04-14T05:46:11.445Z,9.92
2023-04-14T05:48:41.757Z,9.87
2023-04-14T05:51:10.624Z,9.60
2023-04-14T05:53:39.002Z,9.54
2023-04-14T05:56:10.164Z,9.89
2023-04-14T05:58:38.580Z,10.20
2023-04-14T06:01:11.714Z,10.29
2023-04-14T06:03:41.656Z,10.01
2023-04-14T06:06:10.226Z,9.83
2023-04-14T06:08:39.424Z,9.61
2023-04-14T06:11:08.418Z,9.99
2023-04-14T06:13:36.785Z,10.36
2023-04-14T06:16:06.297Z,10.35
2023-04-14T06:18:40.530Z,10.18
2023-04-14T06:21:09.292Z,9.79
2023-04-14T06:23:38.167Z,9.53
2023-04-14T06:26:09.141Z,10.20
2023-04-14T06:28:38.329Z,10.52
2023-04-14T06:31:07.323Z,10.19
2023-04-14T06:33:36.218Z,9.80
2023-04-14T06:36:06.234Z,9.84
2023-04-14T06:38:35.780Z,9.54
2023-04-14T06:41:04.827Z,9.57
2023-04-14T06:43:34.325Z,9.86
2023-04-14T06:46:03.340Z,9.85
2023-04-14T06:48:31.826Z,9.72
2023-04-14T06:51:01.426Z,9.37
2023-04-14T06:53:30.101Z,9.32
2023-04-14T06:56:01.857Z,9.73
2023-04-14T06:58:31.279Z,9.86
2023-04-14T07:01:01.759Z,9.66
2023-04-14T07:03:31.550Z,9.54
2023-04-14T07:06:04.889Z,9.29
2023-04-14T07:08:35.162Z,9.14
2023-04-14T07:11:05.152Z,9.50
2023-04-14T07:13:34.560Z,9.80
2023-04-14T07:16:07.949Z,9.67
2023-04-14T07:18:36.726Z,9.47
2023-04-14T07:21:05.394Z,9.37
2023-04-14T07:23:34.703Z,9.23
2023-04-14T07:26:03.688Z,9.61
2023-04-14T07:28:32.783Z,9.82
2023-04-14T07:31:10.962Z,9.70
2023-04-14T07:33:40.805Z,9.60
2023-04-14T07:36:09.738Z,9.30
2023-04-14T07:38:38.074Z,9.24
2023-04-14T07:41:07.169Z,9.73
2023-04-14T07:43:36.166Z,10.15
2023-04-14T07:46:05.766Z,10.08
2023-04-14T07:48:35.335Z,9.80
2023-04-14T07:51:09.516Z,9.61
2023-04-14T07:53:43.491Z,9.40
2023-04-14T07:56:12.593Z,9.34
2023-04-14T07:58:42.947Z,9.91
2023-04-14T08:01:11.509Z,10.16
2023-04-14T08:03:43.622Z,10.17
2023-04-14T08:06:13.849Z,10.02
2023-04-14T08:08:43.540Z,9.82
2023-04-14T08:11:12.588Z,9.60
2023-04-14T08:13:41.226Z,9.62
2023-04-14T08:16:14.424Z,10.28
2023-04-14T08:18:43.787Z,10.38
2023-04-14T08:21:12.348Z,10.21
2023-04-14T08:23:47.894Z,9.94
2023-04-14T08:26:16.784Z,9.95
2023-04-14T08:28:47.311Z,9.86
2023-04-14T08:31:16.906Z,9.78
2023-04-14T08:33:46.328Z,10.25
2023-04-14T08:36:15.014Z,10.60
2023-04-14T08:38:46.689Z,10.63
2023-04-14T08:41:16.168Z,10.59
2023-04-14T08:43:45.203Z,10.42
2023-04-14T08:46:18.204Z,10.32
2023-04-14T08:48:48.102Z,10.48
2023-04-14T08:51:28.621Z,10.88
2023-04-14T08:53:57.414Z,10.90
2023-04-14T08:56:28.940Z,10.79
2023-04-14T08:58:57.459Z,10.64
2023-04-14T09:01:30.882Z,10.50
2023-04-14T09:04:05.094Z,10.36
2023-04-14T09:06:34.607Z,10.50
2023-04-14T09:09:07.746Z,10.96
2023-04-14T09:11:37.057Z,11.07
2023-04-14T09:14:06.401Z,10.98
2023-04-14T09:16:35.188Z,10.87
2023-04-14T09:19:06.955Z,10.76
2023-04-14T09:21:53.841Z,10.77
2023-04-14T09:24:32.178Z,10.73
2023-04-14T09:27:05.592Z,10.99
2023-04-14T09:29:34.233Z,11.35
2023-04-14T09:32:12.131Z,11.45
2023-04-14T09:34:56.528Z,11.42
2023-04-14T09:37:26.700Z,11.24
2023-04-14T09:39:58.354Z,10.82
2023-04-14T09:42:40.254Z,10.65
2023-04-14T09:45:09.851Z,10.37
2023-04-14T09:47:39.818Z,10.25
2023-04-14T09:50:09.375Z,10.23
2023-04-14T09:52:41.747Z,10.54
2023-04-14T09:55:17.941Z,10.93
2023-04-14T09:57:52.131Z,10.95
2023-04-14T10:00:22.528Z,10.79
2023-04-14T10:03:10.981Z,10.48
2023-04-14T10:05:39.471Z,10.28
2023-04-14T10:08:08.096Z,10.08
2023-04-14T10:10:36.742Z,9.92
2023-04-14T10:13:08.703Z,9.79
2023-04-14T10:15:40.020Z,9.98
2023-04-14T10:18:08.581Z,10.63
2023-04-14T10:28:16.804Z,10.57
2023-04-14T10:30:46.914Z,10.43
2023-04-14T10:33:15.732Z,10.21
2023-04-14T10:35:46.978Z,10.14
2023-04-14T10:38:16.455Z,9.90
2023-04-14T10:40:48.733Z,9.99
2023-04-14T10:43:17.305Z,10.64
2023-04-14T10:45:58.486Z,10.85
2023-04-14T10:48:32.704Z,10.76
2023-04-14T10:51:06.006Z,10.65
2023-04-14T10:53:47.174Z,10.55
2023-04-14T10:56:15.671Z,10.39
2023-04-14T10:58:54.594Z,10.21
2023-04-14T11:01:27.108Z,10.07
2023-04-14T11:03:57.096Z,9.94
2023-04-14T11:07:01.545Z,10.12
2023-04-14T11:09:37.530Z,10.70
2023-04-14T11:12:27.937Z,10.83
2023-04-14T11:15:04.075Z,10.79
2023-04-14T11:17:34.271Z,10.65
2023-04-14T11:20:02.918Z,10.57
2023-04-14T11:22:43.786Z,10.52
2023-04-14T11:25:13.622Z,10.50
2023-04-14T11:27:43.204Z,10.42
2023-04-14T11:30:16.966Z,10.57
2023-04-14T11:32:48.047Z,11.06
2023-04-14T11:35:16.671Z,11.42
2023-04-14T11:37:46.358Z,11.46
2023-04-14T11:40:15.881Z,11.32
2023-04-14T11:42:53.548Z,11.06
2023-04-14T11:45:22.236Z,10.95
2023-04-14T11:48:04.975Z,10.75
2023-04-14T11:50:34.915Z,10.57
2023-04-14T11:53:07.662Z,10.43
2023-04-14T11:55:36.852Z,10.41
2023-04-14T11:58:05.135Z,10.65
2023-04-14T12:00:35.188Z,11.13
2023-04-14T12:03:31.847Z,11.23
2023-04-14T12:06:02.066Z,11.26
2023-04-14T12:08:31.379Z,11.22
2023-04-14T12:11:14.057Z,11.09
2023-04-14T12:13:43.657Z,10.98
2023-04-14T12:16:12.763Z,10.94
2023-04-14T12:18:47.349Z,10.85
2023-04-14T12:21:18.952Z,10.68
2023-04-14T12:23:50.761Z,10.64
2023-04-14T12:26:25.796Z,11.02
2023-04-14T12:28:58.312Z,11.47
2023-04-14T12:31:32.814Z,11.60
2023-04-14T12:34:03.884Z,11.61
2023-04-14T12:36:48.717Z,11.51
2023-04-14T12:39:22.324Z,11.35
2023-04-14T12:41:50.729Z,11.28
2023-04-14T12:44:20.874Z,11.21
2023-04-14T12:46:50.956Z,11.07
2023-04-14T12:49:32.508Z,10.94
2023-04-14T12:52:00.986Z,10.83
2023-04-14T12:54:52.702Z,10.76
2023-04-14T12:57:22.279Z,11.15
2023-04-14T12:59:52.459Z,11.19
2023-04-14T13:02:21.784Z,11.18
2023-04-14T13:04:50.725Z,10.98
2023-04-14T13:07:20.439Z,10.55
2023-04-14T13:09:50.139Z,10.60
2023-04-14T13:12:18.933Z,10.47
2023-04-14T13:14:48.182Z,10.26
2023-04-14T13:17:16.968Z,10.41
2023-04-14T13:19:46.560Z,11.00
2023-04-14T13:22:15.768Z,10.96
2023-04-14T13:24:44.720Z,10.96
2023-04-14T13:27:13.443Z,10.79
2023-04-14T13:29:47.716Z,10.62
2023-04-14T13:32:16.751Z,10.43
2023-04-14T13:34:46.584Z,10.23
2023-04-14T13:37:16.154Z,10.05
2023-04-14T13:39:45.053Z,10.37
2023-04-14T13:42:15.257Z,10.54
2023-04-14T13:44:45.279Z,10.46
2023-04-14T13:47:13.539Z,10.17
2023-04-14T13:49:42.578Z,9.95
2023-04-14T13:52:11.221Z,9.86
2023-04-14T13:54:39.684Z,9.78
2023-04-14T13:57:08.485Z,9.98
2023-04-14T13:59:37.184Z,10.18
2023-04-14T14:02:06.923Z,10.19
2023-04-14T14:04:37.137Z,10.04
2023-04-14T14:07:52.111Z,9.91
2023-04-14T14:10:26.717Z,9.80
2023-04-14T14:12:56.424Z,10.04
2023-04-14T14:15:26.116Z,10.45
2023-04-14T14:18:00.997Z,10.51
2023-04-14T14:20:31.069Z,10.38
2023-04-14T14:22:59.644Z,10.24
2023-04-14T14:25:32.034Z,10.12
2023-04-14T14:28:00.840Z,9.91
2023-04-14T14:30:29.700Z,10.04
2023-04-14T14:33:00.709Z,10.52
2023-04-14T14:35:29.120Z,10.60
2023-04-14T14:37:58.897Z,10.46
2023-04-14T14:40:30.633Z,10.24
2023-04-14T14:43:00.509Z,10.03
2023-04-14T14:45:30.957Z,9.83
2023-04-14T14:48:00.061Z,9.92
2023-04-14T14:50:28.728Z,10.29
2023-04-14T14:52:58.981Z,10.24
2023-04-14T14:55:27.567Z,10.09
2023-04-14T14:57:56.560Z,9.90
2023-04-14T15:00:30.159Z,9.70
2023-04-14T15:03:10.094Z,9.70
2023-04-14T15:05:38.900Z,10.09
2023-04-14T15:08:07.699Z,10.15
2023-04-14T15:10:45.091Z,10.03
2023-04-14T15:13:15.024Z,9.83
2023-04-14T15:15:43.547Z,9.66
2023-04-14T15:18:13.148Z,9.79
2023-04-14T15:20:42.631Z,10.04
2023-04-14T15:23:11.024Z,10.02
2023-04-14T15:25:40.121Z,9.88
2023-04-14T15:28:08.810Z,9.64
2023-04-14T15:30:37.495Z,9.48
2023-04-14T15:33:07.211Z,9.83
2023-04-14T15:35:42.461Z,10.09
2023-04-14T15:38:11.004Z,10.04
2023-04-14T15:40:40.147Z,9.83
2023-04-14T15:43:08.618Z,9.60
2023-04-14T15:45:37.975Z,9.46
2023-04-14T15:48:07.010Z,9.87
2023-04-14T15:50:44.682Z,10.05
2023-04-14T15:53:13.949Z,9.96
2023-04-14T15:55:44.638Z,9.79
2023-04-14T15:58:13.007Z,9.57
2023-04-14T16:00:41.833Z,9.47
2023-04-14T16:03:12.117Z,9.84
2023-04-14T16:05:41.926Z,10.06
2023-04-14T16:08:11.128Z,9.96
2023-04-14T16:10:43.015Z,9.76
2023-04-14T16:13:23.174Z,9.48
2023-04-14T16:15:52.805Z,9.32
2023-04-14T16:18:21.999Z,9.60
2023-04-14T16:20:50.751Z,9.99
2023-04-14T16:23:19.119Z,10.00
2023-04-14T16:25:49.610Z,9.85
2023-04-14T16:28:18.343Z,9.68
2023-04-14T16:30:46.928Z,9.46
2023-04-14T16:33:23.605Z,9.43
2023-04-14T16:35:52.104Z,9.90
2023-04-14T16:38:21.798Z,10.15
2023-04-14T16:40:57.471Z,10.09
2023-04-14T16:43:27.303Z,9.85
2023-04-14T16:46:05.546Z,9.62
2023-04-14T16:48:35.271Z,9.47
2023-04-14T16:51:08.695Z,9.95
2023-04-14T16:53:38.901Z,10.29
2023-04-14T16:56:08.443Z,10.22
2023-04-14T16:58:45.466Z,9.94
2023-04-14T17:01:13.874Z,9.70
2023-04-14T17:03:42.948Z,9.48
2023-04-14T17:06:12.122Z,9.51
2023-04-14T17:08:42.042Z,10.00
2023-04-14T17:11:10.846Z,10.19
2023-04-14T17:13:41.563Z,10.04
2023-04-14T17:16:12.101Z,9.80
2023-04-14T17:18:41.745Z,9.55
2023-04-14T17:21:10.682Z,9.51
2023-04-14T17:23:55.557Z,9.88
2023-04-14T17:26:24.957Z,9.95
2023-04-14T17:28:53.673Z,9.86
2023-04-14T17:31:24.910Z,9.65
2023-04-14T17:33:54.173Z,9.43
2023-04-14T17:36:22.971Z,9.51
2023-04-14T17:38:51.654Z,9.90
2023-04-14T17:41:21.361Z,9.95
2023-04-14T17:43:54.652Z,9.73
2023-04-14T17:46:33.691Z,9.49
2023-04-14T17:49:22.438Z,9.53
2023-04-14T17:52:01.573Z,9.80
2023-04-14T17:54:30.298Z,9.70
2023-04-14T17:56:58.942Z,9.51
2023-04-14T17:59:27.630Z,9.27
2023-04-14T18:01:56.273Z,9.44
2023-04-14T18:04:25.665Z,9.74
2023-04-14T18:06:56.864Z,9.59
2023-04-14T18:09:28.748Z,9.41
2023-04-14T18:11:59.352Z,9.35
2023-04-14T18:14:27.930Z,9.67
2023-04-14T18:16:57.875Z,9.71
2023-04-14T18:19:26.332Z,9.58
2023-04-14T18:21:56.176Z,9.35
2023-04-14T18:26:57.324Z,9.75
2023-04-14T18:29:26.810Z,9.72
2023-04-14T18:31:56.819Z,9.49
2023-04-14T18:34:25.816Z,9.32
2023-04-14T18:36:54.603Z,9.69
2023-04-14T18:39:23.086Z,9.92
2023-04-14T18:41:52.617Z,9.83
2023-04-14T18:44:21.076Z,9.61
2023-04-14T18:46:49.811Z,9.39
2023-04-14T18:49:19.565Z,9.57
2023-04-14T18:51:48.794Z,9.76
2023-04-14T18:54:21.649Z,9.61
2023-04-14T18:56:51.563Z,9.37
2023-04-14T18:59:20.142Z,9.26
2023-04-14T19:01:53.023Z,9.59
2023-04-14T19:04:23.486Z,9.63
2023-04-14T19:06:52.558Z,9.46
2023-04-14T19:09:20.834Z,9.23
2023-04-14T19:11:49.930Z,9.38
2023-04-14T19:14:20.762Z,9.65
2023-04-14T19:16:49.547Z,9.57
2023-04-14T19:19:20.905Z,9.40
2023-04-14T19:21:49.891Z,9.29
2023-04-14T19:24:20.217Z,9.59
2023-04-14T19:26:48.447Z,9.60
2023-04-14T19:29:21.986Z,9.43
2023-04-14T19:31:50.489Z,9.21
2023-04-14T19:34:19.058Z,9.47
2023-04-14T19:36:49.680Z,9.67
2023-04-14T19:39:20.361Z,9.56
2023-04-14T19:41:48.916Z,9.35
2023-04-14T19:44:17.594Z,9.17
2023-04-14T19:46:46.715Z,9.56
2023-04-14T19:49:15.988Z,9.70
2023-04-14T19:51:44.975Z,9.54
2023-04-14T19:54:14.611Z,9.35
2023-04-14T19:56:45.318Z,9.20
2023-04-14T19:59:13.794Z,9.56
2023-04-14T20:01:45.236Z,9.70
2023-04-14T20:04:14.569Z,9.53
2023-04-14T20:06:43.370Z,9.34
2023-04-14T20:09:14.849Z,9.19
2023-04-14T20:11:43.478Z,9.54
2023-04-14T20:14:11.951Z,9.79
2023-04-14T20:16:42.932Z,9.67
2023-04-14T20:19:13.009Z,9.42
2023-04-14T20:21:41.698Z,9.19
2023-04-14T20:24:10.934Z,9.42
2023-04-14T20:26:42.978Z,9.60
2023-04-14T20:29:12.363Z,9.50
2023-04-14T20:31:42.939Z,9.30
2023-04-14T20:34:14.238Z,9.21
2023-04-14T20:36:45.083Z,9.50
2023-04-14T20:39:13.844Z,9.58
2023-04-14T20:41:46.672Z,9.45
2023-04-14T20:44:16.256Z,9.21
2023-04-14T20:46:44.453Z,9.21
2023-04-14T20:49:13.441Z,9.50
2023-04-14T20:51:42.005Z,9.53
2023-04-14T20:54:10.460Z,9.38
2023-04-14T20:56:40.180Z,9.19
2023-04-14T20:59:10.344Z,9.41
2023-04-14T21:01:38.980Z,9.66
2023-04-14T21:04:07.798Z,9.58
2023-04-14T21:06:38.763Z,9.32
2023-04-14T21:09:07.622Z,9.20
2023-04-14T21:11:37.646Z,9.52
2023-04-14T21:15:40.703Z,9.95
2023-04-14T21:16:55.928Z,9.86
2023-04-14T21:19:27.348Z,9.60
2023-04-14T21:21:55.865Z,9.38
2023-04-14T21:24:25.239Z,9.23
2023-04-14T21:26:54.226Z,9.52
2023-04-14T21:29:24.134Z,9.74
2023-04-14T21:31:52.766Z,9.63
2023-04-14T21:34:21.313Z,9.41
2023-04-14T21:36:49.714Z,9.20
2023-04-14T21:39:20.517Z,9.42
2023-04-14T21:41:49.613Z,9.64
2023-04-14T21:44:18.731Z,9.56
2023-04-14T21:46:47.309Z,9.39
2023-04-14T21:49:17.202Z,9.16
2023-04-14T21:51:45.394Z,9.43
2023-04-14T21:54:15.083Z,9.65
2023-04-14T21:56:43.573Z,9.58
2023-04-14T21:59:12.164Z,9.37
2023-04-14T22:01:41.355Z,9.16
2023-04-14T22:04:14.466Z,9.37
2023-04-14T22:06:47.968Z,9.61
2023-04-14T22:09:16.956Z,9.51
2023-04-14T22:11:45.953Z,9.27
2023-04-14T22:14:14.131Z,9.12
2023-04-14T22:16:45.919Z,9.35
2023-04-14T22:19:14.733Z,9.37
2023-04-14T22:21:43.877Z,9.23
2023-04-14T22:24:12.628Z,9.01
2023-04-14T22:26:42.351Z,9.07
2023-04-14T22:29:11.967Z,9.46
2023-04-14T22:31:40.435Z,9.52
2023-04-14T22:34:11.055Z,9.30
2023-04-14T22:36:40.054Z,9.08
2023-04-14T22:39:08.840Z,9.03
2023-04-14T22:41:37.484Z,9.38
2023-04-14T22:44:06.851Z,9.35
2023-04-14T22:46:35.549Z,9.24
2023-04-14T22:49:04.420Z,8.98
2023-04-14T22:51:33.501Z,9.00
2023-04-14T22:54:04.840Z,9.42
2023-04-14T22:56:33.672Z,9.46
2023-04-14T22:59:02.608Z,9.28
2023-04-14T23:01:32.882Z,9.07
2023-04-14T23:04:01.917Z,8.93
2023-04-14T23:06:31.038Z,9.15
2023-04-14T23:08:59.927Z,9.36
2023-04-14T23:11:30.655Z,9.26
2023-04-14T23:13:59.139Z,9.08
2023-04-14T23:16:29.011Z,8.83
2023-04-14T23:19:08.387Z,8.95
2023-04-14T23:21:37.308Z,9.15
2023-04-14T23:24:07.668Z,9.09
2023-04-14T23:26:41.614Z,8.91
2023-04-14T23:29:11.526Z,8.73
2023-04-14T23:31:39.967Z,8.97
2023-04-14T23:34:13.202Z,9.28
2023-04-14T23:36:42.812Z,9.14
2023-04-14T23:39:11.919Z,8.93
2023-04-14T23:41:41.727Z,8.78
2023-04-14T23:44:10.657Z,8.61
2023-04-14T23:46:39.984Z,8.98
2023-04-14T23:49:23.882Z,9.19
2023-04-14T23:51:57.660Z,9.07
2023-04-14T23:54:26.355Z,8.89
2023-04-14T23:56:54.957Z,8.61
2023-04-14T23:59:23.815Z,8.68
